LIMC/MXP METAR and TAF weather

Enter ICAO airport designator
Station Type Date Time Source
LIMC METAR 2019/06/19 01:50 UTC NOAA

LIMC 190150Z 01009KT CAVOK 21/12 Q1014 NOSIG


Station Type Date Time Source
LIMC Decoded METAR 2019/06/19 01:50 UTC NOAA

Milano / Malpensa, Italy (LIMC) 45-37N 008-44E 211M
Jun 18, 2019 - 09:50 PM EDT / 2019.06.19 0150 UTC
Wind: from the N (010 degrees) at 10 MPH (9 KT):0
Visibility: greater than 7 mile(s):0
Temperature: 69 F (21 C)
Dew Point: 53 F (12 C)
Relative Humidity: 56%
Pressure (altimeter): 29.94 in. Hg (1014 hPa)
ob: LIMC 190150Z 01009KT CAVOK 21/12 Q1014 NOSIG
cycle: 2

Station Type Date Time Source
LIMC TAF 2019/06/18 18:21 UTC NOAA

TAF LIMC 181700Z 1818/1924 VRB05KT 9999 SCT060
TEMPO 1901/1907 TSRA PROB40
TEMPO 1912/1918 TSRA

Example: see airport list